createdAt,value
2023-01-27T06:07:09.661Z,-2.08
2023-01-27T06:09:38.172Z,-1.99
2023-01-27T06:12:04.962Z,-1.87
2023-01-27T06:14:31.728Z,-1.77
2023-01-27T06:17:00.475Z,-1.71
2023-01-27T06:19:27.287Z,-1.73
2023-01-27T06:21:54.298Z,-1.80
2023-01-27T06:24:20.957Z,-1.83
2023-01-27T06:26:48.282Z,-1.83
2023-01-27T06:29:15.323Z,-1.84
2023-01-27T06:31:43.378Z,-1.96
2023-01-27T06:34:10.440Z,-2.11
2023-01-27T06:36:39.296Z,-2.26
2023-01-27T06:39:06.180Z,-2.34
2023-01-27T06:41:34.591Z,-2.37
2023-01-27T06:44:03.210Z,-2.33
2023-01-27T06:46:30.904Z,-2.20
2023-01-27T06:48:59.491Z,-2.10
2023-01-27T06:51:30.256Z,-2.00
2023-01-27T06:53:57.030Z,-1.87
2023-01-27T06:56:26.445Z,-1.79
2023-01-27T06:58:53.423Z,-1.78
2023-01-27T07:09:02.928Z,-1.87
2023-01-27T07:11:31.044Z,-1.86
2023-01-27T07:14:00.705Z,-1.86
2023-01-27T07:16:29.296Z,-1.88
2023-01-27T07:18:57.959Z,-1.88
2023-01-27T07:21:26.402Z,-1.85
2023-01-27T07:24:00.654Z,-1.81
2023-01-27T07:26:31.535Z,-1.80
2023-01-27T07:29:01.208Z,-1.80
2023-01-27T07:31:36.096Z,-1.78
2023-01-27T07:34:26.207Z,-1.84
2023-01-27T07:37:26.156Z,-1.92
2023-01-27T07:40:02.030Z,-1.96
2023-01-27T07:42:32.435Z,-2.01
2023-01-27T07:45:02.378Z,-2.09
2023-01-27T07:47:32.849Z,-2.12
2023-01-27T07:50:03.318Z,-2.17
2023-01-27T07:52:40.217Z,-2.18
2023-01-27T07:55:20.038Z,-2.20
2023-01-27T07:57:58.165Z,-2.18
2023-01-27T08:00:56.408Z,-2.15
2023-01-27T08:03:36.269Z,-2.09
2023-01-27T08:06:12.392Z,-2.03
2023-01-27T08:08:48.820Z,-1.99
2023-01-27T08:11:45.918Z,-1.97
2023-01-27T08:14:30.772Z,-1.95
2023-01-27T08:17:06.357Z,-1.90
2023-01-27T08:19:44.172Z,-1.84
2023-01-27T08:22:25.364Z,-1.79
2023-01-27T08:25:15.075Z,-1.78
2023-01-27T08:27:53.515Z,-1.76
2023-01-27T08:31:19.876Z,-1.79
2023-01-27T08:34:11.004Z,-1.73
2023-01-27T08:36:45.046Z,-1.71
2023-01-27T08:39:17.862Z,-1.80
2023-01-27T08:41:59.175Z,-1.93
2023-01-27T08:44:46.253Z,-2.06
2023-01-27T08:47:28.417Z,-2.10
2023-01-27T08:50:07.595Z,-2.01
2023-01-27T08:52:51.413Z,-1.86
2023-01-27T08:55:35.163Z,-1.70
2023-01-27T08:58:20.669Z,-1.59
2023-01-27T09:01:01.562Z,-1.64
2023-01-27T09:03:37.383Z,-1.73
2023-01-27T09:06:14.743Z,-1.81
2023-01-27T09:09:17.118Z,-1.86
2023-01-27T09:12:11.311Z,-1.81
2023-01-27T09:15:00.495Z,-1.77
2023-01-27T09:17:48.079Z,-1.72
2023-01-27T09:20:31.892Z,-1.66
2023-01-27T09:23:05.655Z,-1.55
2023-01-27T09:25:53.600Z,-1.46
2023-01-27T09:28:27.780Z,-1.31
2023-01-27T09:31:01.368Z,-1.15
2023-01-27T09:33:36.458Z,-0.99
2023-01-27T09:36:08.878Z,-0.88
2023-01-27T09:38:47.204Z,-0.91
2023-01-27T09:41:47.043Z,-1.00
2023-01-27T09:44:40.713Z,-1.11
2023-01-27T09:47:18.614Z,-1.17
2023-01-27T09:49:58.379Z,-1.24
2023-01-27T09:53:04.395Z,-1.31
2023-01-27T09:56:01.437Z,-1.36
2023-01-27T09:58:59.418Z,-1.43
2023-01-27T10:02:07.630Z,-1.48
2023-01-27T10:04:54.493Z,-1.43
2023-01-27T10:07:45.525Z,-1.44
2023-01-27T10:10:31.450Z,-1.48
2023-01-27T10:13:33.711Z,-1.48
2023-01-27T10:16:09.868Z,-1.42
2023-01-27T10:19:10.334Z,-1.37
2023-01-27T10:22:15.229Z,-1.34
2023-01-27T10:24:59.811Z,-1.32
2023-01-27T10:27:30.543Z,-1.32
2023-01-27T10:30:06.848Z,-1.29
2023-01-27T10:33:12.499Z,-1.23
2023-01-27T10:35:53.810Z,-1.06
2023-01-27T10:38:49.287Z,-0.91
2023-01-27T10:41:26.470Z,-0.78
2023-01-27T10:44:36.940Z,-0.65
2023-01-27T10:47:26.510Z,-0.49
2023-01-27T10:50:21.893Z,-0.42
2023-01-27T10:53:00.765Z,-0.46
2023-01-27T10:55:58.270Z,-0.56
2023-01-27T10:58:43.032Z,-0.63
2023-01-27T11:01:21.509Z,-0.62
2023-01-27T11:03:59.078Z,-0.57
2023-01-27T11:06:33.839Z,-0.52
2023-01-27T11:09:08.943Z,-0.44
2023-01-27T11:11:46.774Z,-0.42
2023-01-27T11:14:25.620Z,-0.37
2023-01-27T11:17:21.861Z,-0.30
2023-01-27T11:20:01.435Z,-0.31
2023-01-27T11:22:38.309Z,-0.36
2023-01-27T11:25:16.796Z,-0.42
2023-01-27T11:28:03.449Z,-0.46
2023-01-27T11:31:10.807Z,-0.46
2023-01-27T11:34:17.956Z,-0.42
2023-01-27T11:36:51.764Z,-0.37
2023-01-27T11:39:19.933Z,-0.37
2023-01-27T11:41:52.524Z,-0.34
2023-01-27T11:44:26.777Z,-0.28
2023-01-27T11:47:00.129Z,-0.29
2023-01-27T11:49:31.150Z,-0.22
2023-01-27T11:52:06.055Z,-0.11
2023-01-27T11:54:42.173Z,-0.07
2023-01-27T11:57:25.815Z,-0.03
2023-01-27T12:00:07.046Z,-0.02
2023-01-27T12:02:44.854Z,0.04
2023-01-27T12:05:36.046Z,0.13
2023-01-27T12:08:07.165Z,0.25
2023-01-27T12:10:46.419Z,0.26
2023-01-27T12:13:19.276Z,0.24
2023-01-27T12:15:56.013Z,0.28
2023-01-27T12:18:24.512Z,0.30
2023-01-27T12:21:06.478Z,0.26
2023-01-27T12:23:40.937Z,0.31
2023-01-27T12:26:10.456Z,0.37
2023-01-27T12:28:49.822Z,0.35
2023-01-27T12:31:28.051Z,0.34
2023-01-27T12:34:01.133Z,0.35
2023-01-27T12:36:30.419Z,0.18
2023-01-27T12:39:00.505Z,-0.01
2023-01-27T12:41:30.683Z,-0.09
2023-01-27T12:44:07.005Z,-0.09
2023-01-27T12:46:35.121Z,-0.05
2023-01-27T12:49:12.167Z,-0.06
2023-01-27T12:51:48.592Z,-0.02
2023-01-27T12:54:21.896Z,-0.00
2023-01-27T12:56:53.231Z,-0.04
2023-01-27T12:59:33.419Z,-0.07
2023-01-27T13:02:20.188Z,-0.06
2023-01-27T13:04:57.065Z,-0.15
2023-01-27T13:07:30.203Z,-0.33
2023-01-27T13:10:06.040Z,-0.56
2023-01-27T13:12:56.077Z,-0.66
2023-01-27T13:15:25.875Z,-0.56
2023-01-27T13:17:57.647Z,-0.45
2023-01-27T13:20:39.895Z,-0.39
2023-01-27T16:26:13.576Z,-2.26
2023-01-27T16:28:42.973Z,-2.32
2023-01-27T16:31:20.612Z,-2.33
2023-01-27T16:33:47.906Z,-2.28
2023-01-27T16:36:27.558Z,-2.21
2023-01-27T16:38:58.081Z,-2.13
2023-01-27T16:41:28.282Z,-2.07
2023-01-27T16:44:19.022Z,-2.02
2023-01-27T16:46:47.986Z,-2.07
2023-01-27T16:49:22.295Z,-2.05
2023-01-27T16:51:59.325Z,-2.01
2023-01-27T16:54:32.556Z,-1.99
2023-01-27T16:56:59.237Z,-1.98
2023-01-27T16:59:27.442Z,-1.95
2023-01-27T17:01:56.930Z,-1.89
2023-01-27T17:04:25.001Z,-1.84
2023-01-27T17:07:14.761Z,-1.79
2023-01-27T17:09:48.637Z,-1.73
2023-01-27T17:12:35.883Z,-1.71
2023-01-27T17:15:15.880Z,-1.74
2023-01-27T17:17:43.139Z,-1.76
2023-01-27T17:20:20.054Z,-1.72
2023-01-27T17:22:53.404Z,-1.69
2023-01-27T17:25:37.333Z,-1.68
2023-01-27T17:28:11.211Z,-1.68
2023-01-27T17:30:39.532Z,-1.70
2023-01-27T17:33:07.565Z,-1.71
2023-01-27T17:35:36.063Z,-1.72
2023-01-27T17:38:13.260Z,-1.67
2023-01-27T17:40:43.067Z,-1.60
2023-01-27T17:43:31.235Z,-1.59
2023-01-27T17:46:10.269Z,-1.60
2023-01-27T17:48:40.644Z,-1.61
2023-01-27T17:51:09.309Z,-1.72
